Time;durP1;ratioP1;P1;durP2;ratioP2;P2;SDS_P1;SDS_P2;PMS_P1;PMS_P2;Temp;Humidity;BMP_temperature;BMP_pressure;BME280_temperature;BME280_humidity;BME280_pressure;Samples;Min_cycle;Max_cycle;Signal;HPM_P1;HPM_P2
2022/06/05 00:00:12;;;;;;;6.43;6.03;;;16.80;99.90;;;;;;5092665;28;20198;-73
2022/06/05 00:03:06;;;;;;;6.82;6.32;;;16.70;99.90;;;;;;5078459;28;20221;-74
2022/06/05 00:05:43;;;;;;;6.45;5.78;;;16.70;99.90;;;;;;5093130;28;20242;-73
2022/06/05 00:08:20;;;;;;;6.82;6.22;;;16.70;99.90;;;;;;5095274;28;20174;-74
2022/06/05 00:10:55;;;;;;;6.70;6.10;;;16.70;99.90;;;;;;5093312;28;20285;-73
2022/06/05 00:13:23;;;;;;;7.10;6.40;;;16.70;99.90;;;;;;5096109;28;20216;-73
2022/06/05 00:15:49;;;;;;;6.65;6.05;;;16.70;99.90;;;;;;5095817;28;20176;-73
2022/06/05 00:18:15;;;;;;;6.75;6.15;;;16.60;99.90;;;;;;5087076;28;20725;-73
2022/06/05 00:20:42;;;;;;;6.82;6.43;;;16.60;99.90;;;;;;5086931;28;20256;-74
2022/06/05 00:23:08;;;;;;;6.70;6.30;;;16.60;99.90;;;;;;5091782;28;20261;-73
2022/06/05 00:25:52;;;;;;;6.88;6.22;;;16.50;99.90;;;;;;5089822;28;20280;-74
2022/06/05 00:28:18;;;;;;;7.22;6.63;;;16.50;99.90;;;;;;5092269;28;20415;-73
2022/06/05 00:31:19;;;;;;;7.50;6.60;;;16.50;99.90;;;;;;5086671;28;20199;-73
2022/06/05 00:33:44;;;;;;;6.53;6.03;;;16.50;99.90;;;;;;5086222;28;20197;-75
2022/06/05 00:36:39;;;;;;;6.88;6.38;;;16.40;99.90;;;;;;5091797;28;20262;-75
2022/06/05 00:39:28;;;;;;;6.47;6.07;;;16.40;99.90;;;;;;5077245;28;20538;-73
2022/06/05 00:42:04;;;;;;;7.32;6.72;;;16.40;99.90;;;;;;5095800;28;20182;-74
2022/06/05 00:44:42;;;;;;;7.03;6.53;;;16.40;99.90;;;;;;5087821;28;20218;-74
2022/06/05 00:47:17;;;;;;;7.32;6.60;;;16.40;99.90;;;;;;5087160;28;20254;-74
2022/06/05 00:49:51;;;;;;;7.35;6.78;;;16.40;99.90;;;;;;5094201;28;20166;-72
2022/06/05 00:52:22;;;;;;;7.25;6.78;;;16.30;99.90;;;;;;5090258;28;20645;-73
2022/06/05 00:54:48;;;;;;;6.75;6.25;;;16.30;99.90;;;;;;5087905;28;20182;-74
2022/06/05 00:57:15;;;;;;;7.57;6.88;;;16.30;99.90;;;;;;5089034;28;20196;-74
2022/06/05 00:59:43;;;;;;;7.43;6.90;;;16.30;99.90;;;;;;5093712;28;20185;-74
2022/06/05 01:02:10;;;;;;;7.05;6.55;;;16.30;99.90;;;;;;5088733;28;20174;-74
2022/06/05 01:04:40;;;;;;;6.75;6.30;;;16.20;99.90;;;;;;5087828;28;20186;-73
2022/06/05 01:07:05;;;;;;;6.90;6.30;;;16.20;99.90;;;;;;5085041;28;20233;-74
2022/06/05 01:09:31;;;;;;;6.30;5.90;;;16.20;99.90;;;;;;5089824;28;20268;-73
2022/06/05 01:12:13;;;;;;;6.40;5.95;;;16.20;99.90;;;;;;5089753;28;20638;-74
2022/06/05 01:14:38;;;;;;;6.60;6.18;;;16.20;99.90;;;;;;5087195;28;20175;-73
2022/06/05 01:17:15;;;;;;;7.00;6.30;;;16.10;99.90;;;;;;5086104;28;20232;-73
2022/06/05 01:20:01;;;;;;;7.25;6.65;;;16.10;99.90;;;;;;5082809;28;20178;-73
2022/06/05 01:22:48;;;;;;;7.43;6.93;;;16.10;99.90;;;;;;5088715;28;20270;-73
2022/06/05 01:25:43;;;;;;;7.88;6.90;;;16.10;99.90;;;;;;5090894;28;20213;-72
2022/06/05 01:28:16;;;;;;;7.22;6.55;;;16.00;99.90;;;;;;5089753;28;20665;-73
2022/06/05 01:30:51;;;;;;;7.18;6.68;;;16.10;99.90;;;;;;5083765;28;20214;-79
2022/06/05 01:33:23;;;;;;;7.65;6.95;;;16.10;99.90;;;;;;5091996;28;20174;-73
2022/06/05 01:36:08;;;;;;;7.35;6.85;;;16.00;99.90;;;;;;5091246;28;20179;-74
2022/06/05 01:39:05;;;;;;;7.38;6.88;;;15.90;99.90;;;;;;5091997;28;20273;-74
2022/06/05 01:41:41;;;;;;;7.68;6.97;;;15.90;99.90;;;;;;5083585;28;20261;-74
2022/06/05 01:44:12;;;;;;;7.05;6.43;;;16.00;99.90;;;;;;5093135;28;20219;-74
2022/06/05 01:46:38;;;;;;;7.47;6.97;;;16.00;99.90;;;;;;5087298;28;20221;-74
2022/06/05 01:49:19;;;;;;;8.30;7.80;;;15.90;99.90;;;;;;5096599;28;20174;-74
2022/06/05 01:52:02;;;;;;;8.50;7.70;;;15.90;99.90;;;;;;5080838;28;20202;-74
2022/06/05 01:54:44;;;;;;;8.75;7.93;;;15.80;99.90;;;;;;5082920;28;20190;-74
2022/06/05 01:57:13;;;;;;;7.95;7.35;;;15.80;99.90;;;;;;5083477;28;20166;-74
2022/06/05 02:00:00;;;;;;;7.93;7.35;;;15.70;99.90;;;;;;5083436;28;20181;-75
2022/06/05 02:02:31;;;;;;;7.97;7.45;;;15.70;99.90;;;;;;5088041;28;20190;-74
2022/06/05 02:05:05;;;;;;;8.20;7.65;;;15.70;99.90;;;;;;5091484;28;20233;-75
2022/06/05 02:07:42;;;;;;;7.28;6.68;;;15.70;99.90;;;;;;5089148;28;20178;-74
2022/06/05 02:10:33;;;;;;;8.77;8.10;;;15.60;99.90;;;;;;5084343;28;20241;-74
2022/06/05 02:13:00;;;;;;;7.90;7.30;;;15.60;99.90;;;;;;5090514;28;20258;-73
2022/06/05 02:15:28;;;;;;;8.38;7.57;;;15.60;99.90;;;;;;5090890;28;20231;-74
2022/06/05 02:17:56;;;;;;;7.55;7.05;;;15.60;99.90;;;;;;5085032;28;20680;-74
2022/06/05 02:20:22;;;;;;;7.65;7.05;;;15.60;99.90;;;;;;5080803;28;20583;-74
2022/06/05 02:22:50;;;;;;;7.88;7.22;;;15.50;99.90;;;;;;5083528;28;20191;-74
2022/06/05 02:25:20;;;;;;;9.05;8.35;;;15.50;99.90;;;;;;5089621;28;20190;-74
2022/06/05 02:27:46;;;;;;;7.97;7.20;;;15.50;99.90;;;;;;5080292;28;20548;-73
2022/06/05 02:30:15;;;;;;;7.75;7.15;;;15.50;99.90;;;;;;5081061;28;20205;-74
2022/06/05 02:32:53;;;;;;;8.82;8.13;;;15.50;99.90;;;;;;5083611;28;20175;-74
2022/06/05 02:35:34;;;;;;;8.23;7.53;;;15.50;99.90;;;;;;5094294;28;20185;-74
2022/06/05 02:38:27;;;;;;;8.32;7.60;;;15.40;99.90;;;;;;5092556;28;20269;-74
2022/06/05 02:40:52;;;;;;;8.68;7.88;;;15.40;99.90;;;;;;5085585;28;20194;-74
2022/06/05 02:43:29;;;;;;;8.15;7.55;;;15.50;99.90;;;;;;5085109;28;20265;-74
2022/06/05 02:46:04;;;;;;;8.13;7.43;;;15.50;99.90;;;;;;5088242;28;20656;-73
2022/06/05 02:48:29;;;;;;;7.80;7.30;;;15.50;99.90;;;;;;5096520;28;20182;-74
2022/06/05 02:51:10;;;;;;;8.88;8.23;;;15.50;99.90;;;;;;5086205;28;20195;-74
2022/06/05 02:53:45;;;;;;;8.95;8.13;;;15.40;99.90;;;;;;5086177;28;20178;-74
2022/06/05 02:56:11;;;;;;;8.93;8.20;;;15.40;99.90;;;;;;5097634;28;20607;-74
2022/06/05 02:58:37;;;;;;;8.85;8.07;;;15.30;99.90;;;;;;5094222;28;20175;-74
2022/06/05 03:03:46;;;;;;;8.75;7.93;;;15.30;99.90;;;;;;5088361;28;20240;-74
2022/06/05 03:06:12;;;;;;;8.15;7.55;;;15.30;99.90;;;;;;5098224;28;20601;-73
2022/06/05 03:08:37;;;;;;;8.32;7.53;;;15.40;99.90;;;;;;5093872;28;20201;-73
2022/06/05 03:11:03;;;;;;;7.72;7.10;;;15.50;99.90;;;;;;5086311;28;20225;-73
2022/06/05 03:13:29;;;;;;;8.23;7.53;;;15.50;99.90;;;;;;5088798;28;20229;-74
2022/06/05 03:15:54;;;;;;;8.73;7.93;;;15.50;99.90;;;;;;5092997;28;20459;-74
2022/06/05 03:18:20;;;;;;;7.80;7.22;;;15.40;99.90;;;;;;5081561;28;20187;-74
2022/06/05 03:20:45;;;;;;;8.18;7.55;;;15.40;99.90;;;;;;5083473;28;20199;-74
2022/06/05 03:23:12;;;;;;;8.48;7.55;;;15.40;99.90;;;;;;5090929;28;20605;-74
2022/06/05 03:25:40;;;;;;;6.82;6.32;;;15.40;99.90;;;;;;5088285;28;20207;-74
2022/06/05 03:28:06;;;;;;;9.07;8.30;;;15.30;99.90;;;;;;5095161;28;20206;-74
2022/06/05 03:30:32;;;;;;;8.05;7.47;;;15.30;99.90;;;;;;5090170;28;20249;-74
2022/06/05 03:32:58;;;;;;;9.10;8.30;;;15.30;99.90;;;;;;5089599;28;20174;-75
2022/06/05 03:35:24;;;;;;;8.35;7.68;;;15.40;99.90;;;;;;5085891;28;20203;-75
2022/06/05 03:37:49;;;;;;;8.60;7.80;;;15.40;99.90;;;;;;5093464;28;20213;-75
2022/06/05 03:40:16;;;;;;;7.75;7.25;;;15.40;99.90;;;;;;5082414;28;20673;-74
2022/06/05 03:42:43;;;;;;;7.95;7.35;;;15.40;99.90;;;;;;5094154;28;20567;-74
2022/06/05 03:45:16;;;;;;;8.35;7.65;;;15.50;99.90;;;;;;5086025;28;20214;-74
2022/06/05 03:47:43;;;;;;;7.70;7.18;;;15.50;99.90;;;;;;5087215;28;20692;-74
2022/06/05 03:50:10;;;;;;;8.60;7.90;;;15.60;99.90;;;;;;5086739;28;20195;-75
2022/06/05 03:52:36;;;;;;;8.82;8.05;;;15.50;99.90;;;;;;5085305;28;20213;-74
2022/06/05 03:55:03;;;;;;;8.75;7.97;;;15.60;99.90;;;;;;5088266;28;20190;-74
2022/06/05 03:57:28;;;;;;;9.30;8.40;;;15.60;99.90;;;;;;5090170;28;20289;-74
2022/06/05 03:59:54;;;;;;;7.53;6.93;;;15.60;99.90;;;;;;5084694;28;20732;-74
2022/06/05 04:02:20;;;;;;;8.40;7.80;;;15.70;99.90;;;;;;5079124;28;20248;-74
2022/06/05 04:04:45;;;;;;;7.97;7.25;;;15.90;99.90;;;;;;5091993;28;20258;-74
2022/06/05 04:07:11;;;;;;;7.65;7.15;;;15.90;99.90;;;;;;5090981;28;20331;-75
2022/06/05 04:09:36;;;;;;;10.32;8.70;;;16.00;99.90;;;;;;5089487;28;20199;-74
2022/06/05 04:12:02;;;;;;;7.55;7.00;;;16.10;99.90;;;;;;5091493;28;20583;-73
2022/06/05 04:14:28;;;;;;;8.25;7.65;;;16.20;99.90;;;;;;5087959;28;20174;-73
2022/06/05 04:16:53;;;;;;;7.53;7.03;;;16.30;99.90;;;;;;5097279;28;20209;-74
2022/06/05 04:19:20;;;;;;;7.38;6.85;;;16.30;99.90;;;;;;5080857;28;20191;-74
2022/06/05 04:21:47;;;;;;;6.85;6.35;;;16.50;99.90;;;;;;5090365;28;20214;-74
2022/06/05 04:24:13;;;;;;;7.20;6.70;;;16.60;99.90;;;;;;5084377;28;20174;-74
2022/06/05 04:26:41;;;;;;;6.68;6.18;;;16.70;99.90;;;;;;5090310;28;20286;-75
2022/06/05 04:29:07;;;;;;;7.45;6.75;;;16.90;99.90;;;;;;5080980;28;20661;-74
2022/06/05 04:31:35;;;;;;;8.60;6.30;;;17.00;99.90;;;;;;5085484;28;20571;-75
2022/06/05 04:34:07;;;;;;;6.32;5.93;;;17.10;99.90;;;;;;5087455;28;20236;-74
2022/06/05 04:36:33;;;;;;;6.40;5.80;;;17.20;99.90;;;;;;5096385;28;20186;-74
2022/06/05 04:38:58;;;;;;;7.32;6.63;;;17.30;99.90;;;;;;5090538;28;20186;-74
2022/06/05 04:41:27;;;;;;;6.32;5.93;;;17.30;99.90;;;;;;5084625;28;20618;-74
2022/06/05 04:43:54;;;;;;;7.07;6.38;;;17.40;99.90;;;;;;5082607;28;20589;-74
2022/06/05 04:46:22;;;;;;;6.15;5.65;;;17.40;99.90;;;;;;5085802;28;20206;-74
2022/06/05 04:48:48;;;;;;;5.93;5.53;;;17.40;99.90;;;;;;5089179;28;20181;-73
2022/06/05 04:51:21;;;;;;;7.50;6.90;;;17.50;99.90;;;;;;5085512;28;20216;-73
2022/06/05 04:53:48;;;;;;;7.55;6.88;;;17.60;99.90;;;;;;5091910;28;20186;-74
2022/06/05 04:56:17;;;;;;;6.22;5.75;;;17.80;99.90;;;;;;5082100;28;20228;-73
2022/06/05 04:58:42;;;;;;;6.28;5.78;;;18.20;99.90;;;;;;5091931;28;20205;-73
2022/06/05 05:01:17;;;;;;;5.65;5.15;;;18.40;99.90;;;;;;5080074;28;20206;-74
2022/06/05 05:03:43;;;;;;;6.15;5.65;;;18.70;99.90;;;;;;5084767;28;20184;-74
2022/06/05 05:06:09;;;;;;;5.43;4.95;;;18.90;99.90;;;;;;5093950;28;20202;-72
2022/06/05 05:08:34;;;;;;;5.38;4.97;;;19.00;99.90;;;;;;5085770;28;20231;-74
2022/06/05 05:11:00;;;;;;;5.70;5.30;;;19.30;99.90;;;;;;5087193;28;20205;-75
2022/06/05 05:13:26;;;;;;;5.57;5.18;;;19.50;99.90;;;;;;5089280;28;20186;-74
2022/06/05 05:15:54;;;;;;;5.40;5.05;;;19.60;99.90;;;;;;5093201;28;20186;-74
2022/06/05 05:18:20;;;;;;;4.75;4.40;;;19.70;99.90;;;;;;5087443;28;20178;-74
2022/06/05 05:20:46;;;;;;;4.80;4.47;;;19.90;99.90;;;;;;5082113;28;20206;-75
2022/06/05 05:23:12;;;;;;;4.78;4.47;;;20.10;99.90;;;;;;5086976;28;20497;-75
2022/06/05 05:25:38;;;;;;;4.95;4.57;;;20.30;99.90;;;;;;5084095;28;20539;-73
2022/06/05 05:28:06;;;;;;;3.90;3.70;;;20.40;99.90;;;;;;5084341;28;20198;-73
2022/06/05 05:30:32;;;;;;;4.90;4.60;;;20.50;99.90;;;;;;5077589;28;20194;-75
2022/06/05 05:32:58;;;;;;;4.20;4.00;;;20.50;99.90;;;;;;5078360;28;20173;-73
2022/06/05 05:35:24;;;;;;;4.40;4.10;;;20.50;99.90;;;;;;5076600;28;20184;-77
2022/06/05 05:37:50;;;;;;;4.93;4.53;;;20.40;99.90;;;;;;5087457;28;20182;-74
2022/06/05 05:42:59;;;;;;;5.97;4.97;;;20.10;99.90;;;;;;5080536;28;20242;-76
2022/06/05 05:45:25;;;;;;;5.00;4.60;;;19.90;99.90;;;;;;5089852;28;20232;-75
2022/06/05 05:47:51;;;;;;;4.65;4.35;;;19.80;99.90;;;;;;5086158;28;20257;-75
2022/06/05 05:50:17;;;;;;;4.93;4.40;;;19.80;99.90;;;;;;5087041;28;20206;-75
2022/06/05 05:52:44;;;;;;;5.78;5.38;;;19.70;99.90;;;;;;5076671;28;20217;-75
2022/06/05 05:55:15;;;;;;;4.85;4.55;;;19.70;99.90;;;;;;5080781;28;20174;-75
2022/06/05 05:57:41;;;;;;;5.50;5.10;;;19.70;99.90;;;;;;5076050;28;20171;-75
2022/06/05 06:00:09;;;;;;;5.25;4.93;;;19.80;99.90;;;;;;5085748;28;20699;-75
2022/06/05 06:02:36;;;;;;;4.53;4.30;;;19.80;99.90;;;;;;5088226;28;20197;-75
2022/06/05 06:05:03;;;;;;;5.25;4.93;;;19.80;99.90;;;;;;5088100;28;20175;-77
2022/06/05 06:07:28;;;;;;;4.90;4.60;;;19.80;99.90;;;;;;5091176;28;20258;-75
2022/06/05 06:09:54;;;;;;;4.82;4.43;;;19.90;99.90;;;;;;5086273;28;20671;-74
2022/06/05 06:12:20;;;;;;;5.13;4.72;;;19.90;99.90;;;;;;5098474;28;20181;-74
2022/06/05 06:14:46;;;;;;;4.30;4.10;;;20.10;99.90;;;;;;5091479;28;20212;-73
2022/06/05 06:17:12;;;;;;;4.50;4.30;;;20.20;99.90;;;;;;5086736;28;20541;-74
2022/06/05 06:19:37;;;;;;;5.75;4.78;;;20.40;99.90;;;;;;5082984;28;20182;-74
2022/06/05 06:22:04;;;;;;;4.50;4.30;;;20.50;99.90;;;;;;5082546;28;20182;-74
2022/06/05 06:24:30;;;;;;;5.00;4.60;;;20.70;99.90;;;;;;5091944;28;20182;-76
2022/06/05 06:26:56;;;;;;;4.25;3.97;;;20.80;99.90;;;;;;5100670;28;20198;-74
2022/06/05 06:29:21;;;;;;;4.35;4.15;;;20.90;99.90;;;;;;5086181;28;20198;-75
2022/06/05 06:31:47;;;;;;;4.63;4.32;;;21.10;99.90;;;;;;5082009;28;20206;-75
2022/06/05 06:34:12;;;;;;;5.60;5.18;;;21.20;99.90;;;;;;5085158;28;20177;-76
2022/06/05 06:36:39;;;;;;;5.15;4.85;;;21.40;99.90;;;;;;5087789;28;20587;-75
2022/06/05 06:39:05;;;;;;;4.70;4.30;;;21.60;99.90;;;;;;5084413;28;20669;-76
2022/06/05 06:41:31;;;;;;;4.43;4.10;;;21.80;99.90;;;;;;5078456;28;20211;-75
2022/06/05 06:43:56;;;;;;;4.32;4.10;;;21.90;99.90;;;;;;5083280;28;20624;-75
2022/06/05 06:46:22;;;;;;;4.47;4.18;;;22.10;99.90;;;;;;5086526;28;20208;-75
2022/06/05 06:48:48;;;;;;;4.38;4.07;;;22.20;99.90;;;;;;5086223;28;20258;-75
2022/06/05 06:51:16;;;;;;;3.80;3.60;;;22.30;99.90;;;;;;5082811;28;20565;-75
2022/06/05 06:53:42;;;;;;;4.20;3.85;;;22.60;99.90;;;;;;5093828;28;20198;-75
2022/06/05 06:56:20;;;;;;;7.82;4.60;;;22.70;99.90;;;;;;5090901;28;20182;-74
2022/06/05 06:58:46;;;;;;;4.43;3.97;;;22.70;99.90;;;;;;5090990;28;20179;-72
2022/06/05 07:01:13;;;;;;;4.22;3.92;;;22.80;99.90;;;;;;5091227;28;20228;-72
2022/06/05 07:03:39;;;;;;;4.82;4.53;;;22.80;99.90;;;;;;5094787;28;20195;-75
2022/06/05 07:06:08;;;;;;;4.63;4.22;;;22.90;99.90;;;;;;5093161;28;20207;-73
2022/06/05 07:08:34;;;;;;;5.05;4.55;;;23.00;99.90;;;;;;5088048;28;20198;-72
2022/06/05 07:11:00;;;;;;;4.53;4.07;;;23.20;99.90;;;;;;5083412;28;20278;-73
2022/06/05 07:13:26;;;;;;;3.88;3.67;;;23.30;99.90;;;;;;5083079;28;20286;-73
2022/06/05 07:15:52;;;;;;;4.00;3.70;;;23.40;99.90;;;;;;5095790;28;20187;-74
2022/06/05 07:18:18;;;;;;;4.20;4.00;;;23.70;99.90;;;;;;5089248;28;20186;-75
2022/06/05 07:20:45;;;;;;;4.05;3.85;;;24.20;99.90;;;;;;5087329;28;20227;-73
2022/06/05 07:23:12;;;;;;;4.03;3.83;;;25.00;99.90;;;;;;5089536;28;20236;-74
2022/06/05 07:25:46;;;;;;;4.10;3.90;;;25.70;99.90;;;;;;5088462;28;20206;-73
2022/06/05 07:28:12;;;;;;;4.00;3.60;;;26.10;99.90;;;;;;5089263;28;20194;-70
2022/06/05 07:30:37;;;;;;;4.20;3.90;;;26.20;99.90;;;;;;5084852;28;20253;-72
2022/06/05 07:33:04;;;;;;;3.97;3.78;;;26.30;99.90;;;;;;5081222;28;20171;-71
2022/06/05 07:35:29;;;;;;;3.70;3.40;;;26.60;99.90;;;;;;5088113;28;20188;-72
2022/06/05 07:37:55;;;;;;;4.30;3.75;;;27.20;99.90;;;;;;5086960;28;20174;-72
2022/06/05 07:40:20;;;;;;;3.90;3.60;;;27.50;99.90;;;;;;5089485;28;20743;-72
2022/06/05 07:42:46;;;;;;;4.07;3.75;;;27.70;99.90;;;;;;5086129;28;20181;-70
2022/06/05 07:45:14;;;;;;;4.05;3.67;;;27.80;99.90;;;;;;5085243;28;20187;-71
2022/06/05 07:47:41;;;;;;;3.47;3.28;;;27.80;99.90;;;;;;5085575;28;20166;-72
2022/06/05 07:50:07;;;;;;;3.45;3.25;;;27.70;99.90;;;;;;5082462;28;20236;-72
2022/06/05 07:55:17;;;;;;;3.45;3.20;;;27.50;99.90;;;;;;5089665;28;20182;-72
2022/06/05 07:57:42;;;;;;;3.85;3.65;;;27.60;99.90;;;;;;5092089;28;20178;-72
2022/06/05 08:00:11;;;;;;;3.80;3.55;;;27.30;99.90;;;;;;5079312;28;20248;-72
2022/06/05 08:02:37;;;;;;;4.72;4.00;;;27.40;99.90;;;;;;5095516;28;20174;-71
2022/06/05 08:05:04;;;;;;;3.22;3.03;;;27.50;99.90;;;;;;5091369;28;20552;-72
2022/06/05 08:07:31;;;;;;;3.92;3.63;;;27.80;99.90;;;;;;5088213;28;20206;-70
2022/06/05 08:09:58;;;;;;;4.22;3.83;;;28.30;99.90;;;;;;5090368;28;20194;-70
2022/06/05 08:12:28;;;;;;;3.78;3.58;;;28.50;99.90;;;;;;5091885;28;20182;-70
2022/06/05 08:14:54;;;;;;;3.35;3.22;;;28.70;99.60;;;;;;5087477;28;20174;-70
2022/06/05 08:17:23;;;;;;;3.80;3.60;;;29.00;98.80;;;;;;5091640;28;20183;-70
2022/06/05 08:19:49;;;;;;;3.75;3.55;;;28.70;97.40;;;;;;5085852;28;20689;-69
2022/06/05 08:22:17;;;;;;;3.63;3.33;;;28.70;98.60;;;;;;5087308;28;20292;-70
2022/06/05 08:24:43;;;;;;;3.50;3.30;;;28.90;98.00;;;;;;5086386;28;20299;-70
2022/06/05 08:27:12;;;;;;;3.45;3.28;;;29.10;97.40;;;;;;5085870;28;20206;-70
2022/06/05 08:29:38;;;;;;;3.17;3.00;;;29.10;97.90;;;;;;5085536;28;20190;-70
2022/06/05 08:32:06;;;;;;;3.92;3.72;;;29.20;96.00;;;;;;5087278;28;20174;-70
2022/06/05 08:34:32;;;;;;;3.58;3.22;;;29.40;97.00;;;;;;5083001;28;20646;-70
2022/06/05 08:42:59;;;;;;;3.65;3.22;;;29.80;94.20;;;;;;5084253;28;20212;-69
2022/06/05 08:45:58;;;;;;;3.65;3.45;;;30.00;93.20;;;;;;5093053;28;20250;-69
2022/06/05 08:48:36;;;;;;;4.25;4.05;;;29.70;95.10;;;;;;5073651;28;20191;-69
2022/06/05 08:51:26;;;;;;;5.03;4.68;;;29.10;96.90;;;;;;5087294;28;20237;-69
2022/06/05 08:53:56;;;;;;;5.00;4.55;;;28.40;98.50;;;;;;5092168;28;20262;-70
2022/06/05 08:56:37;;;;;;;4.75;4.45;;;27.80;99.90;;;;;;5093118;28;20499;-70
2022/06/05 08:59:26;;;;;;;4.93;4.70;;;27.00;99.90;;;;;;5086951;28;20181;-69
2022/06/05 09:02:12;;;;;;;4.85;4.57;;;26.20;99.90;;;;;;5072120;28;20241;-72
2022/06/05 09:04:58;;;;;;;5.18;4.88;;;25.70;99.90;;;;;;5084504;28;20641;-71
2022/06/05 09:07:48;;;;;;;5.38;5.00;;;25.00;99.90;;;;;;5086009;28;20308;-71
2022/06/05 09:10:36;;;;;;;5.80;5.40;;;24.40;99.90;;;;;;5069359;28;20256;-71
2022/06/05 09:13:12;;;;;;;5.68;5.13;;;23.90;99.90;;;;;;5078515;28;20170;-71
2022/06/05 09:15:43;;;;;;;5.97;5.50;;;23.40;99.90;;;;;;5091343;28;21898;-71
2022/06/05 09:18:19;;;;;;;6.07;5.72;;;23.10;99.90;;;;;;5087001;28;20810;-72
2022/06/05 09:20:51;;;;;;;6.25;5.75;;;22.90;99.90;;;;;;5088647;28;20233;-72
2022/06/05 09:23:29;;;;;;;7.00;6.32;;;22.70;99.90;;;;;;5082544;28;20182;-72
2022/06/05 09:26:13;;;;;;;7.88;7.25;;;22.20;99.90;;;;;;5092683;28;20202;-72
2022/06/05 09:29:04;;;;;;;7.93;7.20;;;21.70;99.90;;;;;;5085813;28;20195;-74
2022/06/05 09:31:59;;;;;;;8.48;7.88;;;21.30;99.90;;;;;;5078984;28;20261;-73
2022/06/05 09:34:40;;;;;;;8.57;7.78;;;20.90;99.90;;;;;;5085355;28;20645;-74
2022/06/05 09:37:28;;;;;;;9.80;8.88;;;20.50;99.90;;;;;;5086137;28;20190;-73
2022/06/05 09:40:18;;;;;;;9.95;9.15;;;20.10;99.90;;;;;;5092616;28;20251;-73
2022/06/05 09:43:28;;;;;;;10.73;9.93;;;19.80;99.90;;;;;;5081819;28;20194;-73
2022/06/05 09:46:08;;;;;;;10.80;9.82;;;19.60;99.90;;;;;;5088383;28;20201;-73
2022/06/05 09:48:51;;;;;;;10.15;9.25;;;19.50;99.90;;;;;;5079994;28;20179;-74
2022/06/05 09:51:18;;;;;;;10.60;9.80;;;19.50;99.90;;;;;;5088554;28;20281;-74
2022/06/05 09:53:47;;;;;;;11.23;10.40;;;19.70;99.90;;;;;;5088345;28;20175;-73
2022/06/05 09:56:35;;;;;;;10.93;10.02;;;19.70;99.90;;;;;;5089076;28;20174;-74
2022/06/05 09:59:14;;;;;;;10.90;9.75;;;19.80;99.90;;;;;;5091523;28;20193;-74
2022/06/05 10:01:59;;;;;;;11.50;10.52;;;19.90;99.90;;;;;;5084911;28;20206;-73
2022/06/05 10:04:29;;;;;;;10.82;9.95;;;20.10;99.90;;;;;;5087054;28;20258;-74
2022/06/05 10:07:18;;;;;;;10.63;9.65;;;20.20;99.90;;;;;;5093197;28;20201;-74
2022/06/05 10:09:45;;;;;;;9.75;9.02;;;20.40;99.90;;;;;;5088989;28;20179;-74
2022/06/05 10:12:25;;;;;;;11.55;10.65;;;20.90;99.90;;;;;;5079312;28;20594;-73
2022/06/05 10:14:51;;;;;;;9.25;8.55;;;21.60;99.90;;;;;;5089877;28;20177;-74
2022/06/05 10:17:16;;;;;;;8.60;7.43;;;22.20;99.90;;;;;;5094115;28;20828;-74
2022/06/05 10:20:18;;;;;;;8.32;7.72;;;23.30;99.90;;;;;;5089406;28;20175;-72
2022/06/05 10:23:14;;;;;;;7.22;6.53;;;24.40;99.90;;;;;;5086356;28;20174;-72
2022/06/05 10:25:46;;;;;;;6.00;5.53;;;26.10;99.90;;;;;;5088566;28;20246;-72
2022/06/05 10:28:21;;;;;;;6.22;5.82;;;28.80;99.90;;;;;;5096213;28;20189;-69
2022/06/05 10:31:00;;;;;;;5.88;5.45;;;30.80;99.90;;;;;;5092173;28;20194;-69
2022/06/05 10:33:43;;;;;;;5.38;5.03;;;32.20;99.90;;;;;;5092576;28;20561;-69
2022/06/05 10:36:24;;;;;;;6.00;5.45;;;32.80;99.90;;;;;;5083520;28;20653;-70
2022/06/05 10:39:01;;;;;;;5.25;4.90;;;32.50;99.90;;;;;;5090914;28;20197;-70
2022/06/05 10:41:30;;;;;;;5.22;4.85;;;31.70;99.90;;;;;;5081103;28;20262;-70
2022/06/05 10:44:20;;;;;;;5.43;4.97;;;31.00;99.90;;;;;;5079915;28;20173;-68
2022/06/05 10:47:25;;;;;;;5.22;4.82;;;30.70;99.90;;;;;;5087352;28;20199;-70
2022/06/05 10:50:08;;;;;;;5.55;5.20;;;30.80;99.90;;;;;;5064117;28;20206;-69
2022/06/05 10:52:49;;;;;;;5.75;5.40;;;30.70;99.90;;;;;;5089749;28;20181;-69
2022/06/05 10:55:18;;;;;;;5.07;4.78;;;30.90;99.90;;;;;;5083553;28;20174;-70
2022/06/05 10:58:06;;;;;;;5.07;4.78;;;30.80;99.90;;;;;;5091490;28;20260;-68
2022/06/05 11:00:59;;;;;;;5.88;5.40;;;30.40;99.90;;;;;;5070007;28;20237;-69
2022/06/05 11:04:10;;;;;;;6.68;5.40;;;30.60;99.90;;;;;;5082639;28;20198;-69
2022/06/05 11:06:50;;;;;;;5.20;4.90;;;31.50;99.90;;;;;;5085914;28;20222;-70
2022/06/05 11:09:40;;;;;;;5.85;5.47;;;31.10;99.40;;;;;;5087536;28;20167;-69
2022/06/05 11:15:52;;;;;;;5.50;5.15;;;29.50;99.90;;;;;;5084613;28;20202;-70
2022/06/05 11:18:41;;;;;;;6.07;5.70;;;28.60;99.90;;;;;;5072359;28;20197;-69
2022/06/05 11:21:08;;;;;;;5.63;5.20;;;28.10;99.90;;;;;;5081714;28;20248;-69
2022/06/05 11:23:37;;;;;;;5.32;5.00;;;28.30;99.90;;;;;;5081364;28;20186;-70
2022/06/05 11:26:35;;;;;;;6.00;5.60;;;28.60;99.90;;;;;;5087969;27;20276;-70
2022/06/05 11:29:28;;;;;;;5.78;5.28;;;29.30;99.90;;;;;;5087898;28;20270;-70
2022/06/05 11:32:15;;;;;;;5.72;5.32;;;30.70;99.90;;;;;;5096369;28;20177;-70
2022/06/05 11:34:44;;;;;;;7.28;5.53;;;31.80;99.80;;;;;;5087398;28;20676;-69
2022/06/05 11:37:37;;;;;;;5.55;5.25;;;32.10;98.20;;;;;;5084274;28;20210;-69
2022/06/05 11:40:06;;;;;;;5.53;5.22;;;31.70;98.30;;;;;;5091894;28;20186;-70
2022/06/05 11:42:38;;;;;;;5.38;5.07;;;32.00;97.10;;;;;;5084925;28;20186;-70
2022/06/05 11:45:03;;;;;;;5.10;4.85;;;32.90;96.20;;;;;;5082308;28;20166;-70
2022/06/05 11:48:10;;;;;;;5.15;4.85;;;34.00;93.30;;;;;;5089382;28;20530;-71
2022/06/05 11:50:53;;;;;;;5.60;5.30;;;34.60;91.30;;;;;;5041297;28;20212;-70
2022/06/05 11:53:45;;;;;;;7.28;4.97;;;35.30;88.80;;;;;;5082450;28;20693;-71
2022/06/05 11:56:42;;;;;;;5.45;5.05;;;36.00;88.10;;;;;;5093634;28;20181;-71
2022/06/05 11:59:32;;;;;;;4.78;4.47;;;36.50;80.90;;;;;;5086464;28;20178;-71
2022/06/05 12:02:29;;;;;;;5.35;4.95;;;36.40;79.10;;;;;;5089373;28;20181;-70
2022/06/05 12:05:17;;;;;;;5.05;4.65;;;36.30;78.10;;;;;;5061867;28;20189;-71
2022/06/05 12:07:46;;;;;;;4.47;4.28;;;36.30;77.70;;;;;;5096512;28;20182;-70
2022/06/05 12:10:26;;;;;;;4.70;4.40;;;36.10;75.90;;;;;;5085591;28;20238;-71
2022/06/05 12:13:30;;;;;;;4.88;4.63;;;36.20;78.50;;;;;;5085984;28;20265;-71
2022/06/05 12:16:17;;;;;;;4.70;4.50;;;37.10;74.50;;;;;;5088983;28;20181;-71
2022/06/05 12:18:56;;;;;;;5.30;4.90;;;36.90;71.80;;;;;;5095373;28;20182;-71
2022/06/05 12:21:27;;;;;;;4.40;4.20;;;37.00;72.80;;;;;;5089335;28;20693;-71
2022/06/05 12:24:23;;;;;;;4.35;4.15;;;36.50;71.50;;;;;;5085959;28;20182;-71
2022/06/05 12:26:57;;;;;;;4.72;4.43;;;36.50;72.50;;;;;;5094373;28;20190;-72
2022/06/05 12:30:06;;;;;;;4.18;3.92;;;37.20;70.00;;;;;;5083018;28;20197;-71
2022/06/05 12:32:49;;;;;;;3.90;3.70;;;38.00;67.60;;;;;;5084367;28;20182;-71
2022/06/05 12:35:18;;;;;;;4.18;3.97;;;39.20;64.00;;;;;;5091449;28;20754;-70
2022/06/05 12:38:07;;;;;;;4.10;3.90;;;39.80;60.00;;;;;;5088147;28;20181;-71
2022/06/05 12:40:37;;;;;;;3.80;3.60;;;40.80;59.60;;;;;;5072543;28;20685;-70
2022/06/05 12:43:06;;;;;;;3.88;3.67;;;42.40;54.70;;;;;;5091120;28;20174;-71
2022/06/05 12:45:33;;;;;;;3.72;3.53;;;43.30;52.70;;;;;;5082991;28;20189;-71
2022/06/05 12:48:09;;;;;;;3.70;3.40;;;44.80;50.40;;;;;;5089237;28;20666;-70
2022/06/05 12:50:46;;;;;;;3.70;3.38;;;45.00;47.90;;;;;;5086046;28;20680;-71
2022/06/05 12:53:38;;;;;;;3.60;3.50;;;44.10;48.70;;;;;;5081029;28;20525;-71
2022/06/05 12:56:31;;;;;;;4.47;4.10;;;43.60;49.80;;;;;;5089684;28;20205;-71
2022/06/05 12:59:28;;;;;;;3.47;3.28;;;45.40;48.40;;;;;;5091154;28;20189;-71
2022/06/05 13:02:25;;;;;;;3.45;3.25;;;48.00;44.90;;;;;;5087369;28;20197;-71
2022/06/05 13:05:14;;;;;;;3.38;3.20;;;50.10;40.80;;;;;;5092716;28;20224;-71
2022/06/05 13:07:49;;;;;;;3.35;3.17;;;51.80;38.30;;;;;;5089910;28;20271;-72
2022/06/05 13:10:36;;;;;;;3.55;3.25;;;52.70;37.00;;;;;;5078302;28;20194;-71
2022/06/05 13:13:17;;;;;;;2.80;2.60;;;53.90;35.10;;;;;;5086936;28;20175;-71
2022/06/05 13:15:49;;;;;;;3.75;3.45;;;53.70;34.20;;;;;;5084549;28;20180;-71
2022/06/05 13:18:39;;;;;;;3.15;2.95;;;54.30;34.00;;;;;;5082041;28;20178;-72
2022/06/05 13:21:26;;;;;;;2.80;2.70;;;54.80;33.20;;;;;;5093494;28;20207;-71
2022/06/05 13:24:30;;;;;;;3.55;3.33;;;54.40;34.10;;;;;;5086405;28;20179;-71
2022/06/05 13:27:12;;;;;;;3.17;3.08;;;56.00;32.40;;;;;;5088567;28;20248;-71
2022/06/05 13:30:14;;;;;;;3.22;3.03;;;56.60;32.00;;;;;;5085624;28;20662;-70
2022/06/05 13:32:55;;;;;;;3.70;3.40;;;55.50;32.50;;;;;;5082145;28;20193;-70
2022/06/05 13:35:48;;;;;;;3.53;3.00;;;53.30;33.20;;;;;;5082534;28;20176;-71
2022/06/05 13:38:53;;;;;;;4.18;3.88;;;50.30;36.40;;;;;;5093238;28;20261;-71